createdAt,value
2023-03-27T00:02:21.586Z,52.59
2023-03-27T00:04:51.611Z,53.38
2023-03-27T00:07:20.998Z,53.01
2023-03-27T00:09:55.768Z,53.19
2023-03-27T00:12:24.484Z,53.12
2023-03-27T00:14:56.847Z,53.39
2023-03-27T00:20:23.236Z,53.05
2023-03-27T00:26:15.155Z,53.11
2023-03-27T00:32:09.448Z,52.79
2023-03-27T00:34:41.730Z,53.03
2023-03-27T00:37:14.575Z,53.28
2023-03-27T00:39:50.162Z,53.18
2023-03-27T00:42:31.120Z,53.06
2023-03-27T00:45:00.852Z,52.81
2023-03-27T00:47:34.355Z,52.91
2023-03-27T01:47:39.146Z,53.75
2023-03-27T01:50:21.093Z,53.64
2023-03-27T01:52:55.042Z,53.33
2023-03-27T01:55:30.891Z,53.30
2023-03-27T01:58:03.291Z,53.25
2023-03-27T02:37:06.903Z,53.52
2023-03-27T02:39:44.470Z,53.20
2023-03-27T02:42:19.329Z,53.09
2023-03-27T02:44:52.363Z,53.03
2023-03-27T02:47:25.972Z,53.54
2023-03-27T02:50:02.423Z,53.48
2023-03-27T02:52:43.524Z,53.33
2023-03-27T02:55:17.548Z,53.67
2023-03-27T02:57:51.785Z,53.94
2023-03-27T04:21:16.739Z,53.99
2023-03-27T04:23:48.774Z,53.81
2023-03-27T04:26:18.211Z,53.64
2023-03-27T04:28:50.553Z,53.59
2023-03-27T04:31:21.487Z,53.48
2023-03-27T04:33:52.642Z,53.57
2023-03-27T04:40:14.937Z,53.76
2023-03-27T04:42:45.190Z,53.82
2023-03-27T04:45:20.502Z,53.55
2023-03-27T04:47:49.894Z,53.72
2023-03-27T04:50:24.988Z,53.57
2023-03-27T04:52:58.985Z,53.74
2023-03-27T04:55:38.077Z,53.73
2023-03-27T04:58:08.413Z,54.02
2023-03-27T05:00:36.764Z,53.61
2023-03-27T05:03:06.171Z,53.56
2023-03-27T05:05:36.903Z,53.36
2023-03-27T05:08:06.706Z,53.55
2023-03-27T05:10:37.486Z,53.53
2023-03-27T05:13:06.949Z,53.59
2023-03-27T05:15:36.364Z,53.70
2023-03-27T05:18:06.373Z,53.76
2023-03-27T05:20:35.883Z,53.43
2023-03-27T05:23:04.525Z,54.03
2023-03-27T05:25:34.643Z,53.46
2023-03-27T05:28:07.798Z,53.64
2023-03-27T05:30:36.754Z,53.84
2023-03-27T05:33:06.726Z,53.24
2023-03-27T05:35:38.133Z,53.76
2023-03-27T05:38:07.640Z,54.08
2023-03-27T05:40:37.454Z,53.64
2023-03-27T05:43:12.268Z,54.18
2023-03-27T05:45:41.755Z,54.21
2023-03-27T05:48:13.213Z,54.03
2023-03-27T05:50:44.347Z,53.64
2023-03-27T05:53:17.812Z,53.72
2023-03-27T05:55:49.317Z,53.56
2023-03-27T05:58:43.315Z,53.78
2023-03-27T06:01:14.686Z,53.77
2023-03-27T06:03:44.549Z,53.69
2023-03-27T06:06:23.661Z,53.58
2023-03-27T06:08:56.240Z,53.69
2023-03-27T06:11:28.521Z,53.80
2023-03-27T06:13:58.914Z,53.42
2023-03-27T06:16:28.235Z,53.53
2023-03-27T06:18:57.884Z,53.95
2023-03-27T06:21:30.730Z,53.82
2023-03-27T06:24:11.332Z,53.75
2023-03-27T06:26:41.508Z,53.92
2023-03-27T06:29:13.940Z,54.03
2023-03-27T06:31:44.285Z,53.89
2023-03-27T06:34:16.293Z,54.39
2023-03-27T06:36:44.764Z,54.07
2023-03-27T06:39:14.835Z,54.09
2023-03-27T06:41:45.594Z,54.05
2023-03-27T06:44:15.794Z,54.41
2023-03-27T06:46:45.956Z,54.24
2023-03-27T06:49:24.023Z,53.98
2023-03-27T06:52:01.111Z,54.18
2023-03-27T06:54:30.981Z,54.34
2023-03-27T07:00:29.079Z,54.53
2023-03-27T07:09:27.470Z,54.54
2023-03-27T07:11:58.613Z,54.34
2023-03-27T07:14:48.912Z,54.32
2023-03-27T07:17:48.761Z,54.39
2023-03-27T07:20:19.643Z,54.37
2023-03-27T07:28:51.367Z,54.64
2023-03-27T07:31:51.045Z,54.18
2023-03-27T07:34:57.406Z,54.21
2023-03-27T07:43:25.863Z,54.14
2023-03-27T07:46:07.684Z,54.40
2023-03-27T07:51:52.162Z,54.54
2023-03-27T07:57:23.803Z,54.52
2023-03-27T08:00:09.753Z,54.95
2023-03-27T08:03:22.725Z,54.90
2023-03-27T08:23:23.523Z,54.74
2023-03-27T08:29:04.905Z,54.38
2023-03-27T08:35:38.910Z,54.47
2023-03-27T08:41:53.025Z,54.61
2023-03-27T09:10:32.381Z,54.30
2023-03-27T09:20:16.764Z,54.65
2023-03-27T09:29:02.229Z,54.56
2023-03-27T09:31:34.965Z,54.51
2023-03-27T09:37:05.967Z,54.26
2023-03-27T09:39:56.594Z,54.31
2023-03-27T09:42:31.318Z,54.15
2023-03-27T09:51:01.630Z,54.07
2023-03-27T09:53:39.345Z,54.18
2023-03-27T09:56:16.527Z,54.05
2023-03-27T09:58:49.394Z,53.91
2023-03-27T10:01:20.602Z,54.13
2023-03-27T10:03:53.593Z,54.14
2023-03-27T10:06:30.606Z,53.96
2023-03-27T10:09:01.584Z,53.89
2023-03-27T10:11:35.709Z,53.72
2023-03-27T10:14:17.874Z,53.39
2023-03-27T10:16:48.877Z,53.37
2023-03-27T10:19:30.820Z,53.73
2023-03-27T10:22:05.634Z,53.50
2023-03-27T10:24:51.256Z,53.22
2023-03-27T10:27:40.509Z,53.27
2023-03-27T10:33:15.843Z,52.92
2023-03-27T10:35:46.393Z,52.88
2023-03-27T10:41:05.886Z,52.28
2023-03-27T10:43:43.296Z,52.50
2023-03-27T10:46:17.415Z,52.32
2023-03-27T10:48:54.799Z,52.09
2023-03-27T10:51:45.544Z,51.97
2023-03-27T10:54:31.842Z,51.10
2023-03-27T10:57:06.404Z,51.11
2023-03-27T10:59:48.064Z,50.95
2023-03-27T11:02:21.050Z,51.13
2023-03-27T11:05:10.664Z,50.78
2023-03-27T11:07:58.366Z,50.85
2023-03-27T11:10:33.592Z,50.69
2023-03-27T11:13:08.020Z,50.11
2023-03-27T11:15:42.460Z,50.52
2023-03-27T11:18:17.391Z,50.21
2023-03-27T11:20:50.975Z,50.11
2023-03-27T11:23:28.036Z,49.89
2023-03-27T11:26:00.315Z,49.90
2023-03-27T11:28:39.953Z,50.02
2023-03-27T11:31:38.908Z,49.70
2023-03-27T11:37:19.334Z,49.19
2023-03-27T11:40:21.402Z,48.52
2023-03-27T11:46:12.957Z,48.45
2023-03-27T11:52:43.342Z,47.93
2023-03-27T11:55:25.851Z,47.74
2023-03-27T11:58:17.073Z,47.17
2023-03-27T12:00:58.254Z,47.03
2023-03-27T12:03:53.145Z,46.60
2023-03-27T12:06:27.252Z,46.71
2023-03-27T12:09:22.276Z,46.08
2023-03-27T12:11:59.504Z,46.07
2023-03-27T12:14:51.627Z,46.07
2023-03-27T12:17:39.943Z,45.94
2023-03-27T13:26:43.100Z,41.20
2023-03-27T13:29:19.032Z,39.42
2023-03-27T13:32:06.351Z,36.89
2023-03-27T13:40:28.143Z,36.99
2023-03-27T13:54:13.265Z,35.44
2023-03-27T13:56:58.378Z,35.47
2023-03-27T14:00:04.215Z,35.74
2023-03-27T14:03:15.110Z,35.39
2023-03-27T14:06:10.210Z,34.85
2023-03-27T14:08:46.823Z,35.63
2023-03-27T14:17:09.602Z,32.88
2023-03-27T14:20:22.515Z,31.80
2023-03-27T14:23:02.325Z,31.63
2023-03-27T14:28:34.455Z,31.12
2023-03-27T14:31:09.665Z,30.93
2023-03-27T14:33:51.629Z,31.09
2023-03-27T14:36:35.879Z,31.47
2023-03-27T14:39:12.989Z,31.97
2023-03-27T14:41:47.767Z,31.79
2023-03-27T14:44:19.187Z,31.46
2023-03-27T14:47:16.868Z,31.13
2023-03-27T14:53:31.322Z,31.13
2023-03-27T15:02:50.801Z,30.94
2023-03-27T15:18:20.853Z,34.73
2023-03-27T15:21:01.366Z,34.50
2023-03-27T16:06:01.836Z,30.16
2023-03-27T16:08:34.514Z,28.78
2023-03-27T18:14:31.324Z,37.73
2023-03-27T18:17:04.636Z,37.71
2023-03-27T19:05:48.197Z,41.20
2023-03-27T21:02:37.798Z,45.71
2023-03-27T21:05:12.999Z,45.99
2023-03-27T21:07:52.881Z,45.92
